N6A KAPF-TIST
Flight info
| Callsign | N6A |
|---|---|
| Flight time | 2h 33m |
| Altitude | 45000 |
| Route | AABER SAXXN Y290 JETSS |
| Aircraft | E55P/M-SBDGRW/LB2 |
Departure
| Time | 2026-04-30 11:40 |
|---|---|
| Airport | Naples Municipal Airport (KAPF) |
Arrival
| Time | 2026-04-30 14:13 |
|---|---|
| Airport | Cyril E. King Airport (TIST) |
| Time | Latitude | Longitude | Altitude | Speed | Heading |
|---|---|---|---|---|---|
| 2026-04-30 11:04 | 26.15211 | -81.77047 | 6 ft | 0 kts | 0° |
| 2026-04-30 11:33 | 26.15216 | -81.77048 | 6 ft | 2 kts | 337° |
| 2026-04-30 11:33 | 26.15219 | -81.77080 | 6 ft | 7 kts | 241° |
| 2026-04-30 11:34 | 26.15192 | -81.77142 | 4 ft | 10 kts | 265° |
| 2026-04-30 11:34 | 26.15224 | -81.77210 | 4 ft | 11 kts | 314° |
| 2026-04-30 11:34 | 26.15281 | -81.77276 | 4 ft | 12 kts | 314° |
| 2026-04-30 11:34 | 26.15293 | -81.77353 | 4 ft | 11 kts | 226° |
| 2026-04-30 11:35 | 26.15231 | -81.77420 | 4 ft | 14 kts | 224° |
| 2026-04-30 11:35 | 26.15153 | -81.77504 | 4 ft | 16 kts | 224° |
| 2026-04-30 11:35 | 26.15073 | -81.77591 | 4 ft | 15 kts | 224° |
| 2026-04-30 11:35 | 26.14994 | -81.77676 | 4 ft | 15 kts | 224° |
| 2026-04-30 11:36 | 26.14916 | -81.77760 | 4 ft | 15 kts | 224° |
| 2026-04-30 11:36 | 26.14839 | -81.77844 | 4 ft | 15 kts | 224° |
| 2026-04-30 11:36 | 26.14763 | -81.77925 | 4 ft | 15 kts | 224° |
| 2026-04-30 11:36 | 26.14688 | -81.78006 | 4 ft | 14 kts | 224° |
| 2026-04-30 11:37 | 26.14615 | -81.78085 | 4 ft | 13 kts | 224° |
| 2026-04-30 11:37 | 26.14566 | -81.78137 | 4 ft | 6 kts | 230° |
| 2026-04-30 11:37 | 26.14565 | -81.78171 | 4 ft | 2 kts | 303° |
| 2026-04-30 11:37 | 26.14567 | -81.78174 | 4 ft | 0 kts | 309° |
| 2026-04-30 11:38 | 26.14567 | -81.78175 | 4 ft | 0 kts | 309° |
| 2026-04-30 11:38 | 26.14575 | -81.78185 | 4 ft | 3 kts | 311° |
| 2026-04-30 11:38 | 26.14602 | -81.78217 | 4 ft | 6 kts | 314° |
| 2026-04-30 11:39 | 26.14641 | -81.78225 | 4 ft | 6 kts | 40° |
| 2026-04-30 11:39 | 26.14730 | -81.78130 | 4 ft | 46 kts | 44° |
| 2026-04-30 11:39 | 26.15150 | -81.77676 | 4 ft | 116 kts | 44° |
| 2026-04-30 11:39 | 26.15815 | -81.76956 | 291 ft | 144 kts | 45° |
| 2026-04-30 11:40 | 26.16562 | -81.76138 | 760 ft | 164 kts | 45° |
| 2026-04-30 11:40 | 26.17458 | -81.75165 | 1159 ft | 189 kts | 44° |
| 2026-04-30 11:40 | 26.18431 | -81.74139 | 1525 ft | 199 kts | 43° |
| 2026-04-30 11:40 | 26.19478 | -81.73078 | 1840 ft | 203 kts | 41° |
| 2026-04-30 11:41 | 26.20549 | -81.72041 | 1975 ft | 204 kts | 41° |
| 2026-04-30 11:41 | 26.21626 | -81.71027 | 1994 ft | 203 kts | 41° |
| 2026-04-30 11:41 | 26.22498 | -81.69799 | 1996 ft | 203 kts | 69° |
| 2026-04-30 11:41 | 26.22607 | -81.68274 | 2051 ft | 202 kts | 108° |
| 2026-04-30 11:42 | 26.21960 | -81.66874 | 2286 ft | 206 kts | 122° |
| 2026-04-30 11:42 | 26.21194 | -81.65533 | 2755 ft | 207 kts | 122° |
| 2026-04-30 11:42 | 26.20411 | -81.64130 | 3345 ft | 221 kts | 121° |
| 2026-04-30 11:42 | 26.19751 | -81.62539 | 3984 ft | 234 kts | 109° |
| 2026-04-30 11:43 | 26.19246 | -81.60821 | 4736 ft | 241 kts | 109° |
| 2026-04-30 11:43 | 26.18735 | -81.59047 | 5548 ft | 244 kts | 108° |
| 2026-04-30 11:43 | 26.18210 | -81.57247 | 6310 ft | 250 kts | 108° |
| 2026-04-30 11:43 | 26.17683 | -81.55397 | 7097 ft | 253 kts | 108° |
| 2026-04-30 11:44 | 26.17151 | -81.53532 | 7872 ft | 256 kts | 107° |
| 2026-04-30 11:44 | 26.16600 | -81.51643 | 8635 ft | 260 kts | 105° |
| 2026-04-30 11:44 | 26.16058 | -81.49698 | 9243 ft | 269 kts | 105° |
| 2026-04-30 11:44 | 26.15499 | -81.47702 | 9883 ft | 276 kts | 107° |
| 2026-04-30 11:45 | 26.14911 | -81.45652 | 10608 ft | 280 kts | 107° |
| 2026-04-30 11:45 | 26.14325 | -81.43600 | 11321 ft | 284 kts | 107° |
| 2026-04-30 11:45 | 26.13730 | -81.41509 | 12019 ft | 288 kts | 107° |
| 2026-04-30 11:45 | 26.13120 | -81.39372 | 12680 ft | 293 kts | 107° |
| 2026-04-30 11:46 | 26.12501 | -81.37205 | 13340 ft | 298 kts | 107° |
| 2026-04-30 11:46 | 26.11868 | -81.34991 | 13999 ft | 303 kts | 107° |
| 2026-04-30 11:46 | 26.11230 | -81.32767 | 14628 ft | 308 kts | 107° |
| 2026-04-30 11:46 | 26.10578 | -81.30488 | 15280 ft | 312 kts | 106° |
| 2026-04-30 11:47 | 26.09926 | -81.28204 | 15966 ft | 314 kts | 105° |
| 2026-04-30 11:47 | 26.09254 | -81.25865 | 16621 ft | 317 kts | 105° |
| 2026-04-30 11:47 | 26.08589 | -81.23538 | 17205 ft | 322 kts | 105° |
| 2026-04-30 11:47 | 26.07901 | -81.21148 | 17833 ft | 325 kts | 105° |
| 2026-04-30 11:48 | 26.07215 | -81.18745 | 18472 ft | 327 kts | 105° |
| 2026-04-30 11:48 | 26.06524 | -81.16345 | 19085 ft | 329 kts | 105° |
| 2026-04-30 11:48 | 26.05834 | -81.13944 | 19642 ft | 333 kts | 105° |
| 2026-04-30 11:48 | 26.05127 | -81.11485 | 20211 ft | 336 kts | 105° |
| 2026-04-30 11:49 | 26.04419 | -81.09015 | 20801 ft | 337 kts | 105° |
| 2026-04-30 11:49 | 26.03702 | -81.06531 | 21324 ft | 341 kts | 105° |
| 2026-04-30 11:49 | 26.02982 | -81.04031 | 21869 ft | 343 kts | 105° |
| 2026-04-30 11:49 | 26.02248 | -81.01486 | 22403 ft | 345 kts | 105° |
| 2026-04-30 11:50 | 26.01511 | -80.98940 | 22899 ft | 349 kts | 105° |
| 2026-04-30 11:50 | 26.00781 | -80.96410 | 23439 ft | 350 kts | 105° |
| 2026-04-30 11:50 | 26.00034 | -80.93825 | 23965 ft | 351 kts | 105° |
| 2026-04-30 11:50 | 25.99284 | -80.91234 | 24506 ft | 351 kts | 104° |
| 2026-04-30 11:51 | 25.98540 | -80.88660 | 24973 ft | 354 kts | 104° |
| 2026-04-30 11:51 | 25.97786 | -80.86056 | 25418 ft | 357 kts | 104° |
| 2026-04-30 11:51 | 25.97024 | -80.83437 | 25867 ft | 359 kts | 104° |
| 2026-04-30 11:51 | 25.96260 | -80.80792 | 26327 ft | 360 kts | 104° |
| 2026-04-30 11:52 | 25.95491 | -80.78145 | 26809 ft | 361 kts | 104° |
| 2026-04-30 11:52 | 25.94729 | -80.75522 | 27240 ft | 362 kts | 104° |
| 2026-04-30 11:52 | 25.93945 | -80.72835 | 27635 ft | 365 kts | 104° |
| 2026-04-30 11:52 | 25.93171 | -80.70158 | 28042 ft | 368 kts | 104° |
| 2026-04-30 11:53 | 25.92386 | -80.67464 | 28418 ft | 370 kts | 104° |
| 2026-04-30 11:53 | 25.91587 | -80.64717 | 28815 ft | 372 kts | 104° |
| 2026-04-30 11:53 | 25.90794 | -80.62006 | 29208 ft | 373 kts | 104° |
| 2026-04-30 11:53 | 25.89993 | -80.59262 | 29590 ft | 375 kts | 104° |
| 2026-04-30 11:54 | 25.89188 | -80.56502 | 29894 ft | 379 kts | 104° |
| 2026-04-30 11:54 | 25.88380 | -80.53730 | 30238 ft | 381 kts | 104° |
| 2026-04-30 11:54 | 25.87557 | -80.50926 | 30697 ft | 380 kts | 104° |
| 2026-04-30 11:54 | 25.86745 | -80.48160 | 31196 ft | 378 kts | 104° |
| 2026-04-30 11:55 | 25.85937 | -80.45391 | 31637 ft | 377 kts | 104° |
| 2026-04-30 11:55 | 25.85132 | -80.42654 | 32031 ft | 377 kts | 104° |
| 2026-04-30 11:55 | 25.84323 | -80.39896 | 32446 ft | 376 kts | 104° |
| 2026-04-30 11:55 | 25.83509 | -80.37121 | 32877 ft | 376 kts | 104° |
| 2026-04-30 11:56 | 25.82707 | -80.34396 | 33338 ft | 374 kts | 105° |
| 2026-04-30 11:56 | 25.81899 | -80.31644 | 33829 ft | 372 kts | 105° |
| 2026-04-30 11:56 | 25.81108 | -80.28961 | 34318 ft | 370 kts | 105° |
| 2026-04-30 11:56 | 25.80310 | -80.26262 | 34760 ft | 369 kts | 105° |
| 2026-04-30 11:57 | 25.79511 | -80.23548 | 35238 ft | 368 kts | 105° |
| 2026-04-30 11:57 | 25.78713 | -80.20844 | 35700 ft | 366 kts | 105° |
| 2026-04-30 11:57 | 25.77928 | -80.18181 | 36141 ft | 365 kts | 105° |
| 2026-04-30 11:57 | 25.77133 | -80.15492 | 36543 ft | 365 kts | 105° |
| 2026-04-30 11:58 | 25.76345 | -80.12824 | 36941 ft | 364 kts | 105° |
| 2026-04-30 11:58 | 25.75555 | -80.10159 | 37326 ft | 364 kts | 105° |
| 2026-04-30 11:58 | 25.74799 | -80.07501 | 37679 ft | 364 kts | 103° |
| 2026-04-30 11:58 | 25.74098 | -80.04833 | 38084 ft | 363 kts | 103° |
| 2026-04-30 11:59 | 25.73378 | -80.02126 | 38471 ft | 363 kts | 103° |
| 2026-04-30 11:59 | 25.72660 | -79.99435 | 38827 ft | 364 kts | 103° |
| 2026-04-30 11:59 | 25.71949 | -79.96771 | 39215 ft | 363 kts | 103° |
| 2026-04-30 11:59 | 25.71231 | -79.94089 | 39545 ft | 363 kts | 103° |
| 2026-04-30 12:00 | 25.70515 | -79.91406 | 39821 ft | 363 kts | 103° |
| 2026-04-30 12:00 | 25.69800 | -79.88733 | 40069 ft | 364 kts | 103° |
| 2026-04-30 12:00 | 25.69078 | -79.86036 | 40295 ft | 366 kts | 103° |
| 2026-04-30 12:00 | 25.68356 | -79.83335 | 40511 ft | 368 kts | 103° |
| 2026-04-30 12:01 | 25.67627 | -79.80627 | 40737 ft | 370 kts | 103° |
| 2026-04-30 12:01 | 25.66892 | -79.77883 | 40980 ft | 371 kts | 104° |
| 2026-04-30 12:01 | 25.66162 | -79.75172 | 41235 ft | 371 kts | 104° |
| 2026-04-30 12:01 | 25.65428 | -79.72443 | 41472 ft | 372 kts | 104° |
| 2026-04-30 12:02 | 25.64686 | -79.69687 | 41691 ft | 374 kts | 104° |
| 2026-04-30 12:02 | 25.64023 | -79.66873 | 41899 ft | 375 kts | 100° |
| 2026-04-30 12:02 | 25.63431 | -79.64100 | 42167 ft | 375 kts | 101° |
| 2026-04-30 12:02 | 25.62820 | -79.61292 | 42475 ft | 375 kts | 101° |
| 2026-04-30 12:03 | 25.62206 | -79.58477 | 42702 ft | 377 kts | 101° |
| 2026-04-30 12:03 | 25.60976 | -79.52855 | 43213 ft | 378 kts | 101° |
| 2026-04-30 12:03 | 25.60355 | -79.50021 | 43446 ft | 378 kts | 102° |
| 2026-04-30 12:04 | 25.59735 | -79.47189 | 43652 ft | 379 kts | 102° |
| 2026-04-30 12:04 | 25.59111 | -79.44340 | 43806 ft | 381 kts | 102° |
| 2026-04-30 12:04 | 25.58491 | -79.41527 | 43970 ft | 382 kts | 102° |
| 2026-04-30 12:04 | 25.57861 | -79.38663 | 44166 ft | 382 kts | 102° |
| 2026-04-30 12:05 | 25.57238 | -79.35824 | 44345 ft | 383 kts | 103° |
| 2026-04-30 12:05 | 25.56608 | -79.32968 | 44499 ft | 383 kts | 103° |
| 2026-04-30 12:05 | 25.55976 | -79.30102 | 44603 ft | 385 kts | 103° |
| 2026-04-30 12:05 | 25.55282 | -79.27249 | 44719 ft | 386 kts | 114° |
| 2026-04-30 12:06 | 25.54108 | -79.24595 | 44889 ft | 385 kts | 118° |
| 2026-04-30 12:06 | 25.52884 | -79.21923 | 45009 ft | 387 kts | 118° |
| 2026-04-30 12:06 | 25.51685 | -79.19273 | 45021 ft | 393 kts | 118° |
| 2026-04-30 12:07 | 25.49188 | -79.13776 | 45016 ft | 406 kts | 118° |
| 2026-04-30 12:07 | 25.46623 | -79.08130 | 44987 ft | 418 kts | 117° |
| 2026-04-30 12:08 | 25.43976 | -79.02313 | 44991 ft | 428 kts | 118° |
| 2026-04-30 12:08 | 25.41287 | -78.96404 | 44992 ft | 438 kts | 117° |
| 2026-04-30 12:09 | 25.38518 | -78.90337 | 44976 ft | 447 kts | 118° |
| 2026-04-30 12:09 | 25.35712 | -78.84193 | 44989 ft | 448 kts | 118° |
| 2026-04-30 12:10 | 25.32898 | -78.78043 | 44995 ft | 449 kts | 118° |
| 2026-04-30 12:10 | 25.30079 | -78.71890 | 44996 ft | 449 kts | 118° |
| 2026-04-30 12:11 | 25.27245 | -78.65711 | 44993 ft | 449 kts | 118° |
| 2026-04-30 12:11 | 25.24422 | -78.59566 | 44994 ft | 449 kts | 118° |
| 2026-04-30 12:12 | 25.21587 | -78.53400 | 44990 ft | 450 kts | 118° |
| 2026-04-30 12:12 | 25.18774 | -78.47292 | 44987 ft | 450 kts | 118° |
| 2026-04-30 12:13 | 25.15934 | -78.41137 | 44988 ft | 450 kts | 118° |
| 2026-04-30 12:13 | 25.13089 | -78.34978 | 44995 ft | 450 kts | 118° |
| 2026-04-30 12:14 | 25.10253 | -78.28844 | 44979 ft | 450 kts | 118° |
| 2026-04-30 12:14 | 25.07406 | -78.22701 | 44981 ft | 449 kts | 118° |
| 2026-04-30 12:15 | 25.04574 | -78.16592 | 44982 ft | 448 kts | 118° |
| 2026-04-30 12:15 | 25.01732 | -78.10471 | 44981 ft | 448 kts | 117° |
| 2026-04-30 12:16 | 24.98914 | -78.04414 | 44985 ft | 447 kts | 118° |
| 2026-04-30 12:16 | 24.96086 | -77.98338 | 44979 ft | 446 kts | 118° |
| 2026-04-30 12:17 | 24.91838 | -77.89226 | 44989 ft | 445 kts | 118° |
| 2026-04-30 12:17 | 24.89010 | -77.83174 | 44985 ft | 445 kts | 118° |
| 2026-04-30 12:18 | 24.86182 | -77.77127 | 44987 ft | 445 kts | 118° |
| 2026-04-30 12:18 | 24.83365 | -77.71114 | 44987 ft | 445 kts | 118° |
| 2026-04-30 12:19 | 24.80537 | -77.65081 | 44991 ft | 444 kts | 118° |
| 2026-04-30 12:19 | 24.77700 | -77.59037 | 45004 ft | 443 kts | 118° |
| 2026-04-30 12:20 | 24.74889 | -77.53050 | 45003 ft | 443 kts | 117° |
| 2026-04-30 12:20 | 24.72123 | -77.46972 | 45003 ft | 443 kts | 117° |
| 2026-04-30 12:21 | 24.69359 | -77.40923 | 45000 ft | 443 kts | 117° |
| 2026-04-30 12:21 | 24.66598 | -77.34876 | 44995 ft | 443 kts | 117° |
| 2026-04-30 12:22 | 24.63841 | -77.28863 | 44990 ft | 443 kts | 117° |
| 2026-04-30 12:22 | 24.61077 | -77.22829 | 44984 ft | 443 kts | 117° |
| 2026-04-30 12:23 | 24.58313 | -77.16801 | 44989 ft | 442 kts | 117° |
| 2026-04-30 12:23 | 24.55539 | -77.10777 | 44993 ft | 442 kts | 117° |
| 2026-04-30 12:24 | 24.52776 | -77.04770 | 44998 ft | 442 kts | 117° |
| 2026-04-30 12:24 | 24.49996 | -76.98740 | 45000 ft | 443 kts | 117° |
| 2026-04-30 12:25 | 24.47216 | -76.92714 | 44998 ft | 443 kts | 117° |
| 2026-04-30 12:25 | 24.44449 | -76.86721 | 45002 ft | 443 kts | 118° |
| 2026-04-30 12:26 | 24.41654 | -76.80679 | 45003 ft | 443 kts | 118° |
| 2026-04-30 12:26 | 24.38878 | -76.74685 | 45001 ft | 444 kts | 118° |
| 2026-04-30 12:27 | 24.36088 | -76.68674 | 45004 ft | 445 kts | 117° |
| 2026-04-30 12:27 | 24.33272 | -76.62608 | 45012 ft | 445 kts | 118° |
| 2026-04-30 12:28 | 24.30474 | -76.56596 | 45003 ft | 446 kts | 118° |
| 2026-04-30 12:28 | 24.27653 | -76.50536 | 45012 ft | 446 kts | 118° |
| 2026-04-30 12:29 | 24.24847 | -76.44515 | 45007 ft | 447 kts | 118° |
| 2026-04-30 12:29 | 24.22010 | -76.38441 | 45008 ft | 448 kts | 118° |
| 2026-04-30 12:30 | 24.19174 | -76.32365 | 45002 ft | 449 kts | 119° |
| 2026-04-30 12:30 | 24.16339 | -76.26312 | 44993 ft | 449 kts | 119° |
| 2026-04-30 12:31 | 24.13504 | -76.20270 | 44999 ft | 448 kts | 119° |
| 2026-04-30 12:31 | 24.10660 | -76.14204 | 44999 ft | 448 kts | 119° |
| 2026-04-30 12:32 | 24.07808 | -76.08133 | 45005 ft | 448 kts | 119° |
| 2026-04-30 12:32 | 24.04954 | -76.02072 | 45002 ft | 449 kts | 119° |
| 2026-04-30 12:33 | 24.02113 | -75.96040 | 44997 ft | 449 kts | 119° |
| 2026-04-30 12:33 | 23.99244 | -75.89952 | 45001 ft | 449 kts | 119° |
| 2026-04-30 12:34 | 23.96394 | -75.83916 | 44993 ft | 450 kts | 119° |
| 2026-04-30 12:34 | 23.93529 | -75.77855 | 44998 ft | 450 kts | 119° |
| 2026-04-30 12:35 | 23.90665 | -75.71816 | 44995 ft | 450 kts | 119° |
| 2026-04-30 12:35 | 23.87791 | -75.65748 | 45000 ft | 450 kts | 119° |
| 2026-04-30 12:36 | 23.84914 | -75.59690 | 45003 ft | 450 kts | 119° |
| 2026-04-30 12:36 | 23.82035 | -75.53634 | 44997 ft | 451 kts | 119° |
| 2026-04-30 12:37 | 23.79131 | -75.47531 | 45004 ft | 451 kts | 119° |
| 2026-04-30 12:37 | 23.76249 | -75.41472 | 45000 ft | 452 kts | 120° |
| 2026-04-30 12:38 | 23.73348 | -75.35403 | 45007 ft | 453 kts | 120° |
| 2026-04-30 12:38 | 23.70450 | -75.29333 | 45002 ft | 453 kts | 120° |
| 2026-04-30 12:39 | 23.67539 | -75.23239 | 45000 ft | 454 kts | 120° |
| 2026-04-30 12:39 | 23.64623 | -75.17164 | 44989 ft | 453 kts | 120° |
| 2026-04-30 12:40 | 23.61732 | -75.11120 | 44992 ft | 452 kts | 120° |
| 2026-04-30 12:40 | 23.58814 | -75.05043 | 44997 ft | 452 kts | 120° |
| 2026-04-30 12:41 | 23.55914 | -74.99013 | 44999 ft | 452 kts | 120° |
| 2026-04-30 12:41 | 23.52993 | -74.92938 | 45005 ft | 451 kts | 120° |
| 2026-04-30 12:42 | 23.50072 | -74.86884 | 45004 ft | 452 kts | 120° |
| 2026-04-30 12:42 | 23.47155 | -74.80839 | 45014 ft | 452 kts | 120° |
| 2026-04-30 12:43 | 23.44239 | -74.74808 | 45010 ft | 453 kts | 120° |
| 2026-04-30 12:43 | 23.41304 | -74.68730 | 45017 ft | 453 kts | 120° |
| 2026-04-30 12:44 | 23.38380 | -74.62701 | 45010 ft | 454 kts | 120° |
| 2026-04-30 12:44 | 23.35433 | -74.56616 | 45012 ft | 455 kts | 120° |
| 2026-04-30 12:45 | 23.32485 | -74.50543 | 45012 ft | 455 kts | 120° |
| 2026-04-30 12:45 | 23.29527 | -74.44459 | 45004 ft | 455 kts | 120° |
| 2026-04-30 12:46 | 23.26579 | -74.38403 | 45006 ft | 455 kts | 120° |
| 2026-04-30 12:46 | 23.23617 | -74.32324 | 44998 ft | 456 kts | 121° |
| 2026-04-30 12:47 | 23.20665 | -74.26272 | 45003 ft | 456 kts | 120° |
| 2026-04-30 12:47 | 23.17701 | -74.20214 | 44996 ft | 456 kts | 120° |
| 2026-04-30 12:48 | 23.14733 | -74.14134 | 45005 ft | 455 kts | 120° |
| 2026-04-30 12:48 | 23.11770 | -74.08088 | 45002 ft | 456 kts | 121° |
| 2026-04-30 12:49 | 23.08792 | -74.02010 | 45003 ft | 456 kts | 121° |
| 2026-04-30 12:49 | 23.05821 | -73.95959 | 45002 ft | 456 kts | 120° |
| 2026-04-30 12:50 | 23.02837 | -73.89889 | 44999 ft | 456 kts | 121° |
| 2026-04-30 12:50 | 22.99858 | -73.83836 | 45001 ft | 456 kts | 121° |
| 2026-04-30 12:51 | 22.96860 | -73.77757 | 45002 ft | 457 kts | 120° |
| 2026-04-30 12:51 | 22.93878 | -73.71706 | 45006 ft | 458 kts | 120° |
| 2026-04-30 12:52 | 22.90874 | -73.65627 | 45004 ft | 459 kts | 121° |
| 2026-04-30 12:52 | 22.87856 | -73.59517 | 44998 ft | 459 kts | 120° |
| 2026-04-30 12:53 | 22.84841 | -73.53429 | 44998 ft | 460 kts | 121° |
| 2026-04-30 12:53 | 22.81822 | -73.47347 | 44991 ft | 460 kts | 120° |
| 2026-04-30 12:54 | 22.78797 | -73.41244 | 45002 ft | 460 kts | 120° |
| 2026-04-30 12:54 | 22.75775 | -73.35167 | 44997 ft | 461 kts | 120° |
| 2026-04-30 12:55 | 22.72740 | -73.29057 | 44986 ft | 460 kts | 121° |
| 2026-04-30 12:55 | 22.69712 | -73.22980 | 44983 ft | 460 kts | 121° |
| 2026-04-30 12:56 | 22.66677 | -73.16898 | 44988 ft | 460 kts | 121° |
| 2026-04-30 12:56 | 22.63638 | -73.10805 | 44987 ft | 460 kts | 121° |
| 2026-04-30 12:57 | 22.60606 | -73.04741 | 44991 ft | 460 kts | 121° |
| 2026-04-30 12:57 | 22.57567 | -72.98675 | 44987 ft | 460 kts | 121° |
| 2026-04-30 12:58 | 22.54524 | -72.92596 | 44988 ft | 461 kts | 121° |
| 2026-04-30 12:58 | 22.51473 | -72.86515 | 44993 ft | 461 kts | 121° |
| 2026-04-30 12:59 | 22.48425 | -72.80447 | 45002 ft | 461 kts | 121° |
| 2026-04-30 12:59 | 22.45367 | -72.74365 | 45009 ft | 461 kts | 121° |
| 2026-04-30 13:00 | 22.42316 | -72.68309 | 45007 ft | 462 kts | 121° |
| 2026-04-30 13:00 | 22.39241 | -72.62210 | 45006 ft | 462 kts | 121° |
| 2026-04-30 13:01 | 22.36174 | -72.56132 | 45005 ft | 463 kts | 121° |
| 2026-04-30 13:01 | 22.33085 | -72.50016 | 45007 ft | 463 kts | 121° |
| 2026-04-30 13:02 | 22.30005 | -72.43926 | 45011 ft | 464 kts | 121° |
| 2026-04-30 13:02 | 22.26910 | -72.37814 | 45010 ft | 464 kts | 121° |
| 2026-04-30 13:03 | 22.23825 | -72.31729 | 44997 ft | 464 kts | 121° |
| 2026-04-30 13:03 | 22.20716 | -72.25604 | 45000 ft | 464 kts | 121° |
| 2026-04-30 13:04 | 22.17636 | -72.19545 | 44996 ft | 464 kts | 121° |
| 2026-04-30 13:04 | 22.14523 | -72.13433 | 45004 ft | 463 kts | 121° |
| 2026-04-30 13:05 | 22.11414 | -72.07323 | 44999 ft | 464 kts | 121° |
| 2026-04-30 13:06 | 22.06757 | -71.98198 | 45008 ft | 463 kts | 121° |
| 2026-04-30 13:06 | 22.03654 | -71.92122 | 45003 ft | 463 kts | 121° |
| 2026-04-30 13:07 | 22.00548 | -71.86050 | 44996 ft | 463 kts | 121° |
| 2026-04-30 13:07 | 21.97429 | -71.79964 | 44999 ft | 464 kts | 121° |
| 2026-04-30 13:08 | 21.94321 | -71.73898 | 45001 ft | 464 kts | 121° |
| 2026-04-30 13:08 | 21.91209 | -71.67838 | 44999 ft | 465 kts | 121° |
| 2026-04-30 13:09 | 21.88070 | -71.61732 | 44998 ft | 465 kts | 121° |
| 2026-04-30 13:09 | 21.84951 | -71.55669 | 45003 ft | 465 kts | 121° |
| 2026-04-30 13:10 | 21.81832 | -71.49608 | 45004 ft | 466 kts | 121° |
| 2026-04-30 13:10 | 21.78679 | -71.43489 | 45002 ft | 466 kts | 121° |
| 2026-04-30 13:11 | 21.75548 | -71.37425 | 44998 ft | 467 kts | 121° |
| 2026-04-30 13:11 | 21.72395 | -71.31326 | 44988 ft | 467 kts | 122° |
| 2026-04-30 13:12 | 21.69245 | -71.25238 | 44987 ft | 466 kts | 122° |
| 2026-04-30 13:12 | 21.66096 | -71.19163 | 44983 ft | 466 kts | 122° |
| 2026-04-30 13:13 | 21.61372 | -71.10052 | 44981 ft | 465 kts | 122° |
| 2026-04-30 13:14 | 21.56496 | -71.01112 | 44996 ft | 462 kts | 127° |
| 2026-04-30 13:14 | 21.51072 | -70.92584 | 44989 ft | 462 kts | 127° |
| 2026-04-30 13:15 | 21.45639 | -70.84042 | 44995 ft | 462 kts | 127° |
| 2026-04-30 13:16 | 21.42025 | -70.78371 | 44997 ft | 462 kts | 127° |
| 2026-04-30 13:16 | 21.38383 | -70.72660 | 44989 ft | 462 kts | 127° |
| 2026-04-30 13:17 | 21.32952 | -70.64150 | 44990 ft | 463 kts | 127° |
| 2026-04-30 13:18 | 21.27475 | -70.55590 | 44994 ft | 464 kts | 127° |
| 2026-04-30 13:18 | 21.22010 | -70.47058 | 44986 ft | 464 kts | 128° |
| 2026-04-30 13:19 | 21.18362 | -70.41370 | 44982 ft | 464 kts | 128° |
| 2026-04-30 13:19 | 21.14719 | -70.35696 | 44980 ft | 464 kts | 127° |
| 2026-04-30 13:20 | 21.11063 | -70.30011 | 44974 ft | 463 kts | 128° |
| 2026-04-30 13:20 | 21.07403 | -70.24320 | 44978 ft | 463 kts | 128° |
| 2026-04-30 13:21 | 21.03760 | -70.18659 | 44994 ft | 462 kts | 128° |
| 2026-04-30 13:22 | 20.98308 | -70.10201 | 44988 ft | 462 kts | 128° |
| 2026-04-30 13:22 | 20.92826 | -70.01713 | 44985 ft | 463 kts | 128° |
| 2026-04-30 13:23 | 20.87349 | -69.93246 | 44978 ft | 463 kts | 128° |
| 2026-04-30 13:24 | 20.80037 | -69.81957 | 44982 ft | 463 kts | 128° |
| 2026-04-30 13:25 | 20.72695 | -69.70645 | 44982 ft | 465 kts | 128° |
| 2026-04-30 13:26 | 20.63477 | -69.56474 | 44972 ft | 465 kts | 129° |
| 2026-04-30 13:28 | 20.54259 | -69.42345 | 44976 ft | 466 kts | 128° |
| 2026-04-30 13:28 | 20.48694 | -69.33830 | 44971 ft | 466 kts | 128° |
| 2026-04-30 13:29 | 20.41273 | -69.22487 | 44971 ft | 466 kts | 129° |
| 2026-04-30 13:31 | 20.31994 | -69.08343 | 44974 ft | 467 kts | 129° |
| 2026-04-30 13:32 | 20.22721 | -68.94246 | 44964 ft | 466 kts | 128° |
| 2026-04-30 13:33 | 20.15288 | -68.82964 | 44976 ft | 465 kts | 128° |
| 2026-04-30 13:34 | 20.09696 | -68.74496 | 44980 ft | 466 kts | 129° |
| 2026-04-30 13:35 | 20.02504 | -68.63037 | 44991 ft | 468 kts | 127° |
| 2026-04-30 13:36 | 19.95343 | -68.51472 | 44995 ft | 469 kts | 126° |
| 2026-04-30 13:36 | 19.89953 | -68.42786 | 44998 ft | 471 kts | 127° |
| 2026-04-30 13:37 | 19.84560 | -68.34109 | 44988 ft | 472 kts | 127° |
| 2026-04-30 13:38 | 19.79145 | -68.25410 | 44982 ft | 471 kts | 127° |
| 2026-04-30 13:39 | 19.71909 | -68.13802 | 44984 ft | 471 kts | 127° |
| 2026-04-30 13:40 | 19.66490 | -68.05125 | 44987 ft | 472 kts | 127° |
| 2026-04-30 13:40 | 19.62860 | -67.99318 | 44981 ft | 472 kts | 127° |
| 2026-04-30 13:41 | 19.59254 | -67.93556 | 44974 ft | 471 kts | 127° |
| 2026-04-30 13:41 | 19.55626 | -67.87764 | 44974 ft | 471 kts | 127° |
| 2026-04-30 13:42 | 19.51993 | -67.81974 | 44975 ft | 471 kts | 127° |
| 2026-04-30 13:42 | 19.46577 | -67.73340 | 44472 ft | 468 kts | 127° |
| 2026-04-30 13:43 | 19.44760 | -67.70442 | 43701 ft | 472 kts | 128° |
| 2026-04-30 13:43 | 19.42957 | -67.67568 | 42906 ft | 474 kts | 128° |
| 2026-04-30 13:43 | 19.41136 | -67.64674 | 42113 ft | 475 kts | 128° |
| 2026-04-30 13:43 | 19.39289 | -67.61733 | 41340 ft | 476 kts | 129° |
| 2026-04-30 13:44 | 19.37457 | -67.58826 | 40584 ft | 476 kts | 130° |
| 2026-04-30 13:44 | 19.35629 | -67.55919 | 39829 ft | 476 kts | 130° |
| 2026-04-30 13:44 | 19.33795 | -67.53010 | 39154 ft | 475 kts | 131° |
| 2026-04-30 13:44 | 19.31962 | -67.50105 | 38544 ft | 477 kts | 131° |
| 2026-04-30 13:45 | 19.28242 | -67.44228 | 37384 ft | 483 kts | 131° |
| 2026-04-30 13:45 | 19.26397 | -67.41303 | 36823 ft | 486 kts | 130° |
| 2026-04-30 13:45 | 19.24517 | -67.38326 | 36254 ft | 488 kts | 130° |
| 2026-04-30 13:46 | 19.22628 | -67.35339 | 35686 ft | 490 kts | 130° |
| 2026-04-30 13:46 | 19.20715 | -67.32311 | 35087 ft | 492 kts | 130° |
| 2026-04-30 13:46 | 19.18813 | -67.29306 | 34510 ft | 494 kts | 130° |
| 2026-04-30 13:46 | 19.16922 | -67.26316 | 33943 ft | 496 kts | 130° |
| 2026-04-30 13:47 | 19.14978 | -67.23248 | 33362 ft | 498 kts | 129° |
| 2026-04-30 13:47 | 19.13063 | -67.20223 | 32794 ft | 499 kts | 129° |
| 2026-04-30 13:47 | 19.11137 | -67.17182 | 32247 ft | 501 kts | 129° |
| 2026-04-30 13:47 | 19.09199 | -67.14130 | 31702 ft | 503 kts | 129° |
| 2026-04-30 13:48 | 19.07247 | -67.11053 | 31151 ft | 504 kts | 129° |
| 2026-04-30 13:48 | 19.05277 | -67.07953 | 30522 ft | 507 kts | 128° |
| 2026-04-30 13:48 | 19.03334 | -67.04892 | 29870 ft | 510 kts | 128° |
| 2026-04-30 13:48 | 19.01337 | -67.01744 | 29186 ft | 512 kts | 128° |
| 2026-04-30 13:49 | 18.99366 | -66.98644 | 28509 ft | 513 kts | 128° |
| 2026-04-30 13:49 | 18.97389 | -66.95525 | 27823 ft | 511 kts | 128° |
| 2026-04-30 13:49 | 18.95422 | -66.92431 | 27142 ft | 506 kts | 128° |
| 2026-04-30 13:49 | 18.93480 | -66.89380 | 26477 ft | 498 kts | 128° |
| 2026-04-30 13:50 | 18.91559 | -66.86366 | 25809 ft | 489 kts | 128° |
| 2026-04-30 13:50 | 18.87847 | -66.80539 | 24496 ft | 471 kts | 128° |
| 2026-04-30 13:50 | 18.86030 | -66.77689 | 23818 ft | 462 kts | 128° |
| 2026-04-30 13:51 | 18.84274 | -66.74940 | 23174 ft | 454 kts | 127° |
| 2026-04-30 13:51 | 18.82531 | -66.72216 | 22525 ft | 445 kts | 129° |
| 2026-04-30 13:51 | 18.80803 | -66.69508 | 21932 ft | 440 kts | 128° |
| 2026-04-30 13:51 | 18.79110 | -66.66859 | 21407 ft | 437 kts | 128° |
| 2026-04-30 13:52 | 18.77404 | -66.64194 | 21037 ft | 437 kts | 128° |
| 2026-04-30 13:52 | 18.76046 | -66.61360 | 20966 ft | 442 kts | 109° |
| 2026-04-30 13:52 | 18.75677 | -66.58109 | 20985 ft | 443 kts | 94° |
| 2026-04-30 13:52 | 18.75493 | -66.54919 | 20970 ft | 440 kts | 96° |
| 2026-04-30 13:53 | 18.75304 | -66.51719 | 20967 ft | 437 kts | 96° |
| 2026-04-30 13:53 | 18.75097 | -66.48512 | 20966 ft | 434 kts | 96° |
| 2026-04-30 13:53 | 18.74889 | -66.45367 | 20967 ft | 432 kts | 96° |
| 2026-04-30 13:53 | 18.74677 | -66.42195 | 20968 ft | 431 kts | 96° |
| 2026-04-30 13:54 | 18.74469 | -66.39070 | 20969 ft | 429 kts | 96° |
| 2026-04-30 13:54 | 18.74260 | -66.35956 | 20973 ft | 428 kts | 96° |
| 2026-04-30 13:54 | 18.74051 | -66.32835 | 20964 ft | 427 kts | 96° |
| 2026-04-30 13:54 | 18.73842 | -66.29728 | 20966 ft | 425 kts | 96° |
| 2026-04-30 13:55 | 18.73630 | -66.26603 | 20967 ft | 424 kts | 96° |
| 2026-04-30 13:55 | 18.73424 | -66.23534 | 20962 ft | 423 kts | 96° |
| 2026-04-30 13:55 | 18.73212 | -66.20416 | 20963 ft | 422 kts | 97° |
| 2026-04-30 13:55 | 18.73007 | -66.17369 | 20969 ft | 421 kts | 97° |
| 2026-04-30 13:56 | 18.72796 | -66.14304 | 20977 ft | 420 kts | 96° |
| 2026-04-30 13:56 | 18.72588 | -66.11240 | 20982 ft | 419 kts | 96° |
| 2026-04-30 13:56 | 18.72380 | -66.08188 | 20989 ft | 418 kts | 96° |
| 2026-04-30 13:56 | 18.72169 | -66.05130 | 20991 ft | 418 kts | 96° |
| 2026-04-30 13:57 | 18.71958 | -66.02062 | 20996 ft | 418 kts | 97° |
| 2026-04-30 13:57 | 18.71748 | -65.99012 | 21002 ft | 418 kts | 96° |
| 2026-04-30 13:57 | 18.71537 | -65.95954 | 20890 ft | 421 kts | 96° |
| 2026-04-30 13:57 | 18.71323 | -65.92865 | 20548 ft | 429 kts | 96° |
| 2026-04-30 13:58 | 18.71102 | -65.89716 | 20129 ft | 438 kts | 96° |
| 2026-04-30 13:58 | 18.70651 | -65.83234 | 19047 ft | 443 kts | 96° |
| 2026-04-30 13:58 | 18.70426 | -65.80026 | 18503 ft | 436 kts | 96° |
| 2026-04-30 13:59 | 18.70208 | -65.76899 | 17963 ft | 431 kts | 95° |
| 2026-04-30 13:59 | 18.69986 | -65.73744 | 17409 ft | 425 kts | 95° |
| 2026-04-30 13:59 | 18.69770 | -65.70663 | 16863 ft | 420 kts | 95° |
| 2026-04-30 13:59 | 18.69557 | -65.67628 | 16321 ft | 414 kts | 95° |
| 2026-04-30 14:00 | 18.69345 | -65.64634 | 15778 ft | 407 kts | 95° |
| 2026-04-30 14:00 | 18.68936 | -65.58877 | 14689 ft | 386 kts | 95° |
| 2026-04-30 14:00 | 18.68735 | -65.56075 | 14138 ft | 378 kts | 95° |
| 2026-04-30 14:01 | 18.68541 | -65.53352 | 13587 ft | 368 kts | 95° |
| 2026-04-30 14:01 | 18.68353 | -65.50729 | 13033 ft | 358 kts | 95° |
| 2026-04-30 14:01 | 18.68164 | -65.48136 | 12476 ft | 349 kts | 94° |
| 2026-04-30 14:01 | 18.67982 | -65.45627 | 11948 ft | 340 kts | 94° |
| 2026-04-30 14:02 | 18.67806 | -65.43182 | 11513 ft | 330 kts | 93° |
| 2026-04-30 14:02 | 18.67636 | -65.40813 | 11080 ft | 321 kts | 93° |
| 2026-04-30 14:02 | 18.67472 | -65.38502 | 10663 ft | 312 kts | 92° |
| 2026-04-30 14:02 | 18.66973 | -65.36327 | 10259 ft | 307 kts | 117° |
| 2026-04-30 14:03 | 18.65769 | -65.34529 | 9898 ft | 299 kts | 127° |
| 2026-04-30 14:03 | 18.64221 | -65.33122 | 9506 ft | 295 kts | 149° |
| 2026-04-30 14:03 | 18.62398 | -65.32139 | 9128 ft | 289 kts | 152° |
| 2026-04-30 14:03 | 18.60586 | -65.31247 | 8741 ft | 285 kts | 154° |
| 2026-04-30 14:04 | 18.58801 | -65.30386 | 8376 ft | 281 kts | 154° |
| 2026-04-30 14:04 | 18.57038 | -65.29546 | 8016 ft | 277 kts | 154° |
| 2026-04-30 14:04 | 18.55295 | -65.28715 | 7648 ft | 269 kts | 154° |
| 2026-04-30 14:04 | 18.53614 | -65.27916 | 7277 ft | 261 kts | 154° |
| 2026-04-30 14:05 | 18.51982 | -65.27137 | 6906 ft | 255 kts | 154° |
| 2026-04-30 14:05 | 18.50389 | -65.26379 | 6540 ft | 249 kts | 153° |
| 2026-04-30 14:05 | 18.48818 | -65.25628 | 6171 ft | 245 kts | 153° |
| 2026-04-30 14:05 | 18.47264 | -65.24891 | 5805 ft | 241 kts | 153° |
| 2026-04-30 14:06 | 18.45759 | -65.24171 | 5445 ft | 237 kts | 153° |
| 2026-04-30 14:06 | 18.42788 | -65.22757 | 4727 ft | 230 kts | 153° |
| 2026-04-30 14:07 | 18.39933 | -65.21395 | 4163 ft | 220 kts | 153° |
| 2026-04-30 14:07 | 18.38550 | -65.20740 | 3867 ft | 216 kts | 153° |
| 2026-04-30 14:07 | 18.37191 | -65.20092 | 3598 ft | 212 kts | 153° |
| 2026-04-30 14:08 | 18.34555 | -65.18827 | 3071 ft | 205 kts | 152° |
| 2026-04-30 14:08 | 18.33407 | -65.18001 | 2996 ft | 195 kts | 122° |
| 2026-04-30 14:08 | 18.33018 | -65.15356 | 2988 ft | 180 kts | 90° |
| 2026-04-30 14:09 | 18.33029 | -65.14029 | 2831 ft | 178 kts | 88° |
| 2026-04-30 14:09 | 18.33080 | -65.12756 | 2669 ft | 172 kts | 87° |
| 2026-04-30 14:09 | 18.33181 | -65.10268 | 2184 ft | 169 kts | 88° |
| 2026-04-30 14:10 | 18.33231 | -65.09049 | 1981 ft | 165 kts | 87° |
| 2026-04-30 14:10 | 18.33275 | -65.07847 | 1771 ft | 162 kts | 88° |
| 2026-04-30 14:10 | 18.33330 | -65.06718 | 1584 ft | 145 kts | 88° |
| 2026-04-30 14:10 | 18.33368 | -65.05721 | 1386 ft | 130 kts | 89° |
| 2026-04-30 14:11 | 18.33418 | -65.04803 | 1211 ft | 120 kts | 90° |
| 2026-04-30 14:11 | 18.33441 | -65.03944 | 1064 ft | 116 kts | 90° |
| 2026-04-30 14:11 | 18.33480 | -65.03110 | 917 ft | 114 kts | 89° |
| 2026-04-30 14:11 | 18.33523 | -65.02271 | 765 ft | 113 kts | 91° |
| 2026-04-30 14:12 | 18.33556 | -65.01450 | 605 ft | 113 kts | 90° |
| 2026-04-30 14:12 | 18.33595 | -65.00640 | 475 ft | 110 kts | 90° |
| 2026-04-30 14:12 | 18.33629 | -64.99829 | 341 ft | 110 kts | 91° |
| 2026-04-30 14:12 | 18.33652 | -64.99295 | 236 ft | 111 kts | 90° |
| 2026-04-30 14:13 | 18.33694 | -64.98218 | 26 ft | 106 kts | 89° |
| 2026-04-30 14:13 | 18.33722 | -64.97551 | 21 ft | 62 kts | 87° |
| 2026-04-30 14:13 | 18.33733 | -64.97256 | 25 ft | 32 kts | 88° |
| 2026-04-30 14:13 | 18.33743 | -64.97025 | 27 ft | 31 kts | 87° |
| 2026-04-30 14:14 | 18.33754 | -64.96802 | 27 ft | 27 kts | 84° |
| 2026-04-30 14:14 | 18.33792 | -64.96687 | 26 ft | 12 kts | 4° |
| 2026-04-30 14:14 | 18.33833 | -64.96687 | 27 ft | 0 kts | 359° |
| 2026-04-30 14:15 | 18.33867 | -64.96688 | 27 ft | 7 kts | 358° |
| 2026-04-30 14:15 | 18.33911 | -64.96710 | 27 ft | 8 kts | 275° |
| 2026-04-30 14:15 | 18.33911 | -64.96774 | 27 ft | 9 kts | 266° |
| 2026-04-30 14:16 | 18.33909 | -64.96839 | 27 ft | 4 kts | 291° |
| 2026-04-30 14:16 | 18.33923 | -64.96847 | 27 ft | 2 kts | 9° |
| 2026-04-30 14:16 | 18.33929 | -64.96842 | 27 ft | 0 kts | 86° |
| 2026-04-30 14:16 | 18.33929 | -64.96839 | 27 ft | 0 kts | 86° |